sensor_id;sensor_type;location;lat;lon;timestamp;pressure;altitude;pressure_sealevel;temperature;humidity
62524;BME280;53689;56.878;60.672;2023-12-20T00:00:38;97197.03;;;20.79;25.05
62524;BME280;53689;56.878;60.672;2023-12-20T00:03:06;97195.75;;;20.88;25.48
62524;BME280;53689;56.878;60.672;2023-12-20T00:05:34;97198.66;;;20.87;25.00
62524;BME280;53689;56.878;60.672;2023-12-20T00:08:02;97199.00;;;20.97;24.90
62524;BME280;53689;56.878;60.672;2023-12-20T00:10:30;97201.41;;;21.05;25.50
62524;BME280;53689;56.878;60.672;2023-12-20T00:13:00;97196.81;;;20.87;24.61
62524;BME280;53689;56.878;60.672;2023-12-20T00:15:28;97193.16;;;21.00;25.14
62524;BME280;53689;56.878;60.672;2023-12-20T00:17:56;97194.00;;;21.01;25.02
62524;BME280;53689;56.878;60.672;2023-12-20T00:20:24;97202.78;;;20.89;24.67
62524;BME280;53689;56.878;60.672;2023-12-20T00:22:53;97189.16;;;20.84;25.42
62524;BME280;53689;56.878;60.672;2023-12-20T00:25:21;97193.00;;;20.95;25.22
62524;BME280;53689;56.878;60.672;2023-12-20T00:27:49;97180.53;;;21.01;24.98
62524;BME280;53689;56.878;60.672;2023-12-20T00:30:18;97190.81;;;20.85;24.63
62524;BME280;53689;56.878;60.672;2023-12-20T00:32:46;97178.56;;;20.89;25.44
62524;BME280;53689;56.878;60.672;2023-12-20T00:35:14;97174.72;;;21.04;25.50
62524;BME280;53689;56.878;60.672;2023-12-20T00:37:43;97174.69;;;21.11;25.98
62524;BME280;53689;56.878;60.672;2023-12-20T00:40:11;97169.47;;;20.90;25.57
62524;BME280;53689;56.878;60.672;2023-12-20T00:42:39;97157.75;;;20.78;25.48
62524;BME280;53689;56.878;60.672;2023-12-20T00:45:08;97163.69;;;20.87;25.30
62524;BME280;53689;56.878;60.672;2023-12-20T00:47:37;97161.31;;;20.97;25.53
62524;BME280;53689;56.878;60.672;2023-12-20T00:50:07;97156.06;;;20.84;23.98
62524;BME280;53689;56.878;60.672;2023-12-20T00:52:35;97160.78;;;20.88;25.50
62524;BME280;53689;56.878;60.672;2023-12-20T00:55:03;97153.03;;;20.99;25.61
62524;BME280;53689;56.878;60.672;2023-12-20T00:57:31;97146.88;;;20.91;25.09
62524;BME280;53689;56.878;60.672;2023-12-20T00:59:59;97152.47;;;20.90;24.37
62524;BME280;53689;56.878;60.672;2023-12-20T01:02:27;97138.81;;;20.91;25.14
62524;BME280;53689;56.878;60.672;2023-12-20T01:04:57;97138.66;;;20.86;24.32
62524;BME280;53689;56.878;60.672;2023-12-20T01:07:25;97142.69;;;20.96;25.91
62524;BME280;53689;56.878;60.672;2023-12-20T01:09:53;97133.97;;;21.00;25.37
62524;BME280;53689;56.878;60.672;2023-12-20T01:12:21;97126.56;;;20.96;24.35
62524;BME280;53689;56.878;60.672;2023-12-20T01:14:49;97126.72;;;21.01;25.40
62524;BME280;53689;56.878;60.672;2023-12-20T01:17:17;97119.72;;;21.00;24.94
62524;BME280;53689;56.878;60.672;2023-12-20T01:19:45;97119.50;;;21.01;24.66
62524;BME280;53689;56.878;60.672;2023-12-20T01:22:14;97114.44;;;20.86;23.74
62524;BME280;53689;56.878;60.672;2023-12-20T01:24:42;97117.81;;;20.75;24.27
62524;BME280;53689;56.878;60.672;2023-12-20T01:27:10;97110.47;;;20.89;25.16
62524;BME280;53689;56.878;60.672;2023-12-20T01:29:38;97102.91;;;21.04;26.71
62524;BME280;53689;56.878;60.672;2023-12-20T01:32:06;97097.41;;;20.92;23.76
62524;BME280;53689;56.878;60.672;2023-12-20T01:34:34;97097.63;;;20.91;24.58
62524;BME280;53689;56.878;60.672;2023-12-20T01:37:03;97086.19;;;20.96;24.88
62524;BME280;53689;56.878;60.672;2023-12-20T01:39:32;97083.09;;;20.99;26.25
62524;BME280;53689;56.878;60.672;2023-12-20T01:41:59;97074.84;;;21.12;24.78
62524;BME280;53689;56.878;60.672;2023-12-20T01:44:28;97072.59;;;20.90;25.26
62524;BME280;53689;56.878;60.672;2023-12-20T01:46:56;97075.44;;;20.96;24.58
62524;BME280;53689;56.878;60.672;2023-12-20T01:49:24;97081.16;;;21.06;25.66
62524;BME280;53689;56.878;60.672;2023-12-20T01:51:52;97081.97;;;21.06;25.38
62524;BME280;53689;56.878;60.672;2023-12-20T01:54:20;97081.47;;;20.91;24.75
62524;BME280;53689;56.878;60.672;2023-12-20T01:56:50;97082.91;;;20.93;25.44
62524;BME280;53689;56.878;60.672;2023-12-20T01:59:19;97067.00;;;20.92;25.47
62524;BME280;53689;56.878;60.672;2023-12-20T02:01:47;97076.56;;;21.06;25.43
62524;BME280;53689;56.878;60.672;2023-12-20T02:04:16;97060.97;;;20.97;24.29
62524;BME280;53689;56.878;60.672;2023-12-20T02:06:46;97067.81;;;20.92;24.95
62524;BME280;53689;56.878;60.672;2023-12-20T02:09:15;97054.91;;;20.76;25.50
62524;BME280;53689;56.878;60.672;2023-12-20T02:11:43;97051.16;;;20.58;23.89
62524;BME280;53689;56.878;60.672;2023-12-20T02:14:12;97055.03;;;20.62;24.70
62524;BME280;53689;56.878;60.672;2023-12-20T02:16:40;97036.81;;;20.64;25.42
62524;BME280;53689;56.878;60.672;2023-12-20T02:19:13;97029.97;;;20.69;25.02
62524;BME280;53689;56.878;60.672;2023-12-20T02:21:43;97035.22;;;20.82;25.73
62524;BME280;53689;56.878;60.672;2023-12-20T02:24:11;97031.28;;;20.59;23.81
62524;BME280;53689;56.878;60.672;2023-12-20T02:26:40;97021.59;;;20.77;25.06
62524;BME280;53689;56.878;60.672;2023-12-20T02:29:12;97016.81;;;20.79;24.30
62524;BME280;53689;56.878;60.672;2023-12-20T02:31:40;97017.00;;;20.84;24.98
62524;BME280;53689;56.878;60.672;2023-12-20T02:34:08;97009.34;;;20.81;25.74
62524;BME280;53689;56.878;60.672;2023-12-20T02:36:36;96996.22;;;20.91;24.71
62524;BME280;53689;56.878;60.672;2023-12-20T02:39:06;96996.00;;;20.93;25.25
62524;BME280;53689;56.878;60.672;2023-12-20T02:41:34;96995.72;;;20.83;25.12
62524;BME280;53689;56.878;60.672;2023-12-20T02:44:03;96993.41;;;20.79;24.29
62524;BME280;53689;56.878;60.672;2023-12-20T02:46:31;97000.31;;;20.75;24.07
62524;BME280;53689;56.878;60.672;2023-12-20T02:48:59;96988.88;;;20.80;24.04
62524;BME280;53689;56.878;60.672;2023-12-20T02:51:27;96983.78;;;20.72;24.43
62524;BME280;53689;56.878;60.672;2023-12-20T02:53:55;96979.53;;;20.64;24.38
62524;BME280;53689;56.878;60.672;2023-12-20T02:56:24;96989.03;;;20.85;24.99
62524;BME280;53689;56.878;60.672;2023-12-20T02:58:52;96974.59;;;20.79;24.45
62524;BME280;53689;56.878;60.672;2023-12-20T03:01:20;96966.22;;;20.69;24.66
62524;BME280;53689;56.878;60.672;2023-12-20T03:03:48;96952.41;;;20.65;24.01
62524;BME280;53689;56.878;60.672;2023-12-20T03:06:17;96946.88;;;20.60;24.99
62524;BME280;53689;56.878;60.672;2023-12-20T03:08:45;96944.78;;;20.62;24.58
62524;BME280;53689;56.878;60.672;2023-12-20T03:11:13;96939.25;;;20.57;25.91
62524;BME280;53689;56.878;60.672;2023-12-20T03:13:43;96916.56;;;20.72;24.36
62524;BME280;53689;56.878;60.672;2023-12-20T03:16:11;96918.19;;;20.73;25.16
62524;BME280;53689;56.878;60.672;2023-12-20T03:18:39;96919.34;;;20.84;25.12
62524;BME280;53689;56.878;60.672;2023-12-20T03:21:07;96914.44;;;20.74;24.32
62524;BME280;53689;56.878;60.672;2023-12-20T03:23:35;96908.81;;;20.82;24.62
62524;BME280;53689;56.878;60.672;2023-12-20T03:26:05;96903.72;;;20.92;23.92
62524;BME280;53689;56.878;60.672;2023-12-20T03:28:34;96900.66;;;21.19;24.44
62524;BME280;53689;56.878;60.672;2023-12-20T03:31:04;96900.94;;;20.99;24.07
62524;BME280;53689;56.878;60.672;2023-12-20T03:33:33;96904.56;;;21.05;24.57
62524;BME280;53689;56.878;60.672;2023-12-20T03:36:01;96904.72;;;21.10;24.37
62524;BME280;53689;56.878;60.672;2023-12-20T03:38:29;96898.94;;;21.25;24.49
62524;BME280;53689;56.878;60.672;2023-12-20T03:40:57;96901.19;;;21.10;24.23
62524;BME280;53689;56.878;60.672;2023-12-20T03:43:25;96883.66;;;21.07;23.91
62524;BME280;53689;56.878;60.672;2023-12-20T03:45:53;96886.94;;;21.09;23.80
62524;BME280;53689;56.878;60.672;2023-12-20T03:48:23;96892.41;;;21.33;24.68
62524;BME280;53689;56.878;60.672;2023-12-20T03:50:51;96891.47;;;21.39;24.96
62524;BME280;53689;56.878;60.672;2023-12-20T03:53:18;96880.78;;;21.20;24.85
62524;BME280;53689;56.878;60.672;2023-12-20T03:55:46;96886.94;;;21.09;23.38
62524;BME280;53689;56.878;60.672;2023-12-20T03:58:14;96884.53;;;21.19;23.88
62524;BME280;53689;56.878;60.672;2023-12-20T04:00:42;96885.78;;;21.17;24.34
62524;BME280;53689;56.878;60.672;2023-12-20T04:03:10;96881.69;;;21.14;24.35
62524;BME280;53689;56.878;60.672;2023-12-20T04:05:40;96884.38;;;21.14;24.49
62524;BME280;53689;56.878;60.672;2023-12-20T04:08:08;96870.06;;;21.32;24.58
62524;BME280;53689;56.878;60.672;2023-12-20T04:10:36;96856.59;;;21.32;24.04
62524;BME280;53689;56.878;60.672;2023-12-20T04:13:05;96856.69;;;21.26;23.79
62524;BME280;53689;56.878;60.672;2023-12-20T04:15:33;96854.34;;;21.17;24.53
62524;BME280;53689;56.878;60.672;2023-12-20T04:18:02;96855.19;;;21.30;24.19
62524;BME280;53689;56.878;60.672;2023-12-20T04:20:29;96852.00;;;21.33;23.60
62524;BME280;53689;56.878;60.672;2023-12-20T04:23:00;96846.03;;;21.31;24.26
62524;BME280;53689;56.878;60.672;2023-12-20T04:25:28;96834.59;;;21.35;23.72
62524;BME280;53689;56.878;60.672;2023-12-20T04:27:56;96837.28;;;21.35;24.19
62524;BME280;53689;56.878;60.672;2023-12-20T04:30:24;96828.03;;;21.43;23.68
62524;BME280;53689;56.878;60.672;2023-12-20T04:32:52;96825.59;;;21.42;24.43
62524;BME280;53689;56.878;60.672;2023-12-20T04:35:20;96819.56;;;21.16;23.52
62524;BME280;53689;56.878;60.672;2023-12-20T04:37:48;96806.06;;;21.04;24.01
62524;BME280;53689;56.878;60.672;2023-12-20T04:40:18;96811.78;;;20.96;24.36
62524;BME280;53689;56.878;60.672;2023-12-20T04:42:47;96797.91;;;21.11;23.49
62524;BME280;53689;56.878;60.672;2023-12-20T04:45:15;96796.34;;;21.03;24.23
62524;BME280;53689;56.878;60.672;2023-12-20T04:47:43;96793.00;;;21.19;24.18
62524;BME280;53689;56.878;60.672;2023-12-20T04:50:11;96781.34;;;21.26;22.88
62524;BME280;53689;56.878;60.672;2023-12-20T04:52:40;96782.50;;;21.30;23.73
62524;BME280;53689;56.878;60.672;2023-12-20T04:55:08;96772.81;;;21.41;22.86
62524;BME280;53689;56.878;60.672;2023-12-20T04:57:37;96775.34;;;21.35;22.43
62524;BME280;53689;56.878;60.672;2023-12-20T05:00:07;96764.50;;;21.30;23.55
62524;BME280;53689;56.878;60.672;2023-12-20T05:02:35;96760.03;;;21.48;24.05
62524;BME280;53689;56.878;60.672;2023-12-20T05:05:03;96753.38;;;21.27;23.36
62524;BME280;53689;56.878;60.672;2023-12-20T05:07:31;96764.59;;;21.47;24.45
62524;BME280;53689;56.878;60.672;2023-12-20T05:09:59;96759.59;;;21.63;24.28
62524;BME280;53689;56.878;60.672;2023-12-20T05:12:27;96753.84;;;21.59;24.69
62524;BME280;53689;56.878;60.672;2023-12-20T05:14:58;96757.47;;;21.41;23.87
62524;BME280;53689;56.878;60.672;2023-12-20T05:17:26;96760.03;;;21.48;23.89
62524;BME280;53689;56.878;60.672;2023-12-20T05:19:54;96751.16;;;21.47;23.23
62524;BME280;53689;56.878;60.672;2023-12-20T05:22:22;96758.50;;;21.40;24.09
62524;BME280;53689;56.878;60.672;2023-12-20T05:24:50;96741.44;;;21.46;22.01
62524;BME280;53689;56.878;60.672;2023-12-20T05:27:17;96765.06;;;21.32;23.93
62524;BME280;53689;56.878;60.672;2023-12-20T05:29:45;96769.06;;;21.54;23.88
62524;BME280;53689;56.878;60.672;2023-12-20T05:32:14;96775.50;;;21.41;24.02
62524;BME280;53689;56.878;60.672;2023-12-20T05:34:42;96772.22;;;21.51;24.66
62524;BME280;53689;56.878;60.672;2023-12-20T05:37:10;96759.09;;;21.54;23.87
62524;BME280;53689;56.878;60.672;2023-12-20T05:39:38;96760.28;;;21.46;23.44
62524;BME280;53689;56.878;60.672;2023-12-20T05:42:07;96760.28;;;21.58;23.63
62524;BME280;53689;56.878;60.672;2023-12-20T05:44:35;96754.19;;;21.63;23.88
62524;BME280;53689;56.878;60.672;2023-12-20T05:47:04;96755.56;;;21.30;23.41
62524;BME280;53689;56.878;60.672;2023-12-20T05:49:33;96748.44;;;21.35;22.59
62524;BME280;53689;56.878;60.672;2023-12-20T05:52:01;96745.03;;;21.04;22.95
62524;BME280;53689;56.878;60.672;2023-12-20T05:54:29;96730.75;;;21.16;23.00
62524;BME280;53689;56.878;60.672;2023-12-20T05:56:56;96732.63;;;21.03;23.07
62524;BME280;53689;56.878;60.672;2023-12-20T05:59:24;96723.00;;;20.84;23.48
62524;BME280;53689;56.878;60.672;2023-12-20T06:01:52;96719.81;;;20.87;23.39
62524;BME280;53689;56.878;60.672;2023-12-20T06:04:20;96712.34;;;20.89;23.24
62524;BME280;53689;56.878;60.672;2023-12-20T06:06:51;96718.84;;;20.81;23.61
62524;BME280;53689;56.878;60.672;2023-12-20T06:09:19;96711.84;;;20.80;23.49
62524;BME280;53689;56.878;60.672;2023-12-20T06:11:47;96710.72;;;20.88;25.66
62524;BME280;53689;56.878;60.672;2023-12-20T06:14:14;96707.69;;;20.65;23.74
62524;BME280;53689;56.878;60.672;2023-12-20T06:16:42;96708.31;;;20.79;23.99
62524;BME280;53689;56.878;60.672;2023-12-20T06:19:10;96702.53;;;20.83;23.60
62524;BME280;53689;56.878;60.672;2023-12-20T06:21:39;96704.09;;;20.72;23.97
62524;BME280;53689;56.878;60.672;2023-12-20T06:24:12;96700.72;;;20.76;24.36
62524;BME280;53689;56.878;60.672;2023-12-20T06:26:41;96689.88;;;20.83;24.29
62524;BME280;53689;56.878;60.672;2023-12-20T06:29:08;96686.19;;;20.65;24.52
62524;BME280;53689;56.878;60.672;2023-12-20T06:31:37;96686.88;;;21.03;24.68
62524;BME280;53689;56.878;60.672;2023-12-20T06:34:05;96687.94;;;21.26;23.00
62524;BME280;53689;56.878;60.672;2023-12-20T06:36:33;96681.25;;;21.29;23.23
62524;BME280;53689;56.878;60.672;2023-12-20T06:39:01;96668.38;;;21.43;22.89
62524;BME280;53689;56.878;60.672;2023-12-20T06:41:30;96673.16;;;21.53;23.59
62524;BME280;53689;56.878;60.672;2023-12-20T06:43:58;96664.28;;;21.40;24.58
62524;BME280;53689;56.878;60.672;2023-12-20T06:46:26;96663.94;;;21.48;24.03
62524;BME280;53689;56.878;60.672;2023-12-20T06:48:55;96653.41;;;21.23;23.77
62524;BME280;53689;56.878;60.672;2023-12-20T06:51:23;96662.78;;;21.44;23.91
62524;BME280;53689;56.878;60.672;2023-12-20T06:53:51;96652.81;;;21.45;23.41
62524;BME280;53689;56.878;60.672;2023-12-20T06:56:19;96643.69;;;21.46;23.03
62524;BME280;53689;56.878;60.672;2023-12-20T06:58:48;96630.53;;;21.61;23.45
62524;BME280;53689;56.878;60.672;2023-12-20T07:01:16;96628.09;;;21.60;23.19
62524;BME280;53689;56.878;60.672;2023-12-20T07:03:44;96638.06;;;21.59;23.51
62524;BME280;53689;56.878;60.672;2023-12-20T07:06:12;96629.84;;;21.66;23.18
62524;BME280;53689;56.878;60.672;2023-12-20T07:08:40;96618.50;;;21.52;23.27
62524;BME280;53689;56.878;60.672;2023-12-20T07:11:09;96611.84;;;21.55;24.33
62524;BME280;53689;56.878;60.672;2023-12-20T07:13:37;96607.25;;;21.55;23.58
62524;BME280;53689;56.878;60.672;2023-12-20T07:16:06;96606.81;;;21.46;24.25
62524;BME280;53689;56.878;60.672;2023-12-20T07:18:33;96601.06;;;21.55;24.27
62524;BME280;53689;56.878;60.672;2023-12-20T07:21:01;96605.13;;;21.57;23.90
62524;BME280;53689;56.878;60.672;2023-12-20T07:23:30;96593.91;;;21.60;23.90
62524;BME280;53689;56.878;60.672;2023-12-20T07:25:58;96593.66;;;21.62;23.86
62524;BME280;53689;56.878;60.672;2023-12-20T07:28:25;96583.34;;;21.59;23.56
62524;BME280;53689;56.878;60.672;2023-12-20T07:30:54;96583.69;;;21.74;23.53
62524;BME280;53689;56.878;60.672;2023-12-20T07:33:24;96588.41;;;21.67;24.60
62524;BME280;53689;56.878;60.672;2023-12-20T07:35:52;96596.25;;;21.69;23.77
62524;BME280;53689;56.878;60.672;2023-12-20T07:38:20;96586.97;;;21.76;24.64
62524;BME280;53689;56.878;60.672;2023-12-20T07:40:48;96585.38;;;21.93;23.81
62524;BME280;53689;56.878;60.672;2023-12-20T07:43:16;96592.06;;;21.90;24.08
62524;BME280;53689;56.878;60.672;2023-12-20T07:45:43;96583.38;;;22.00;23.92
62524;BME280;53689;56.878;60.672;2023-12-20T07:48:12;96580.19;;;22.03;23.92
62524;BME280;53689;56.878;60.672;2023-12-20T07:50:41;96564.00;;;22.03;23.64
62524;BME280;53689;56.878;60.672;2023-12-20T07:53:09;96567.91;;;21.95;23.83
62524;BME280;53689;56.878;60.672;2023-12-20T07:55:37;96568.69;;;22.08;23.83
62524;BME280;53689;56.878;60.672;2023-12-20T07:58:05;96574.06;;;22.08;23.64
62524;BME280;53689;56.878;60.672;2023-12-20T08:00:32;96577.56;;;21.91;23.64
62524;BME280;53689;56.878;60.672;2023-12-20T08:03:00;96566.19;;;21.89;23.29
62524;BME280;53689;56.878;60.672;2023-12-20T08:05:28;96566.28;;;21.94;23.27
62524;BME280;53689;56.878;60.672;2023-12-20T08:07:58;96571.50;;;21.84;23.36
62524;BME280;53689;56.878;60.672;2023-12-20T08:10:25;96564.31;;;21.89;24.01
62524;BME280;53689;56.878;60.672;2023-12-20T08:12:54;96564.31;;;21.89;24.17
62524;BME280;53689;56.878;60.672;2023-12-20T08:15:21;96556.47;;;21.88;24.16
62524;BME280;53689;56.878;60.672;2023-12-20T08:17:49;96562.53;;;21.95;23.71
62524;BME280;53689;56.878;60.672;2023-12-20T08:20:18;96556.19;;;22.01;23.74
62524;BME280;53689;56.878;60.672;2023-12-20T08:22:58;96548.66;;;22.03;24.02
62524;BME280;53689;56.878;60.672;2023-12-20T08:25:26;96557.44;;;22.11;24.20
62524;BME280;53689;56.878;60.672;2023-12-20T08:27:54;96547.69;;;22.10;24.32
62524;BME280;53689;56.878;60.672;2023-12-20T08:30:22;96549.66;;;22.14;24.45
62524;BME280;53689;56.878;60.672;2023-12-20T08:32:51;96550.81;;;22.18;24.36
62524;BME280;53689;56.878;60.672;2023-12-20T08:35:18;96559.66;;;21.85;24.05
62524;BME280;53689;56.878;60.672;2023-12-20T08:37:46;96546.59;;;21.12;25.55
62524;BME280;53689;56.878;60.672;2023-12-20T08:40:16;96550.88;;;21.78;25.65
62524;BME280;53689;56.878;60.672;2023-12-20T08:42:44;96545.16;;;22.03;24.95
62524;BME280;53689;56.878;60.672;2023-12-20T08:45:11;96547.66;;;21.93;24.61
62524;BME280;53689;56.878;60.672;2023-12-20T08:47:39;96532.69;;;21.68;24.94
62524;BME280;53689;56.878;60.672;2023-12-20T08:50:08;96539.31;;;21.77;25.01
62524;BME280;53689;56.878;60.672;2023-12-20T08:52:36;96541.38;;;21.87;25.13
62524;BME280;53689;56.878;60.672;2023-12-20T08:55:05;96536.81;;;21.87;25.34
62524;BME280;53689;56.878;60.672;2023-12-20T08:57:34;96531.22;;;22.06;25.27
62524;BME280;53689;56.878;60.672;2023-12-20T09:00:03;96538.50;;;21.94;24.54
62524;BME280;53689;56.878;60.672;2023-12-20T09:02:34;96532.16;;;21.83;24.71
62524;BME280;53689;56.878;60.672;2023-12-20T09:05:02;96527.28;;;21.97;25.34
62524;BME280;53689;56.878;60.672;2023-12-20T09:07:30;96530.53;;;21.99;24.88
62524;BME280;53689;56.878;60.672;2023-12-20T09:09:59;96523.03;;;21.72;24.00
62524;BME280;53689;56.878;60.672;2023-12-20T09:12:27;96521.94;;;21.85;24.62
62524;BME280;53689;56.878;60.672;2023-12-20T09:14:56;96517.53;;;21.96;24.73
62524;BME280;53689;56.878;60.672;2023-12-20T09:17:25;96520.44;;;22.06;24.60
62524;BME280;53689;56.878;60.672;2023-12-20T09:19:53;96516.50;;;21.97;24.71
62524;BME280;53689;56.878;60.672;2023-12-20T09:22:21;96520.09;;;22.02;24.87
62524;BME280;53689;56.878;60.672;2023-12-20T09:24:49;96524.41;;;22.03;24.55
62524;BME280;53689;56.878;60.672;2023-12-20T09:27:17;96515.50;;;22.03;24.35
62524;BME280;53689;56.878;60.672;2023-12-20T09:29:45;96514.03;;;22.12;23.93
62524;BME280;53689;56.878;60.672;2023-12-20T09:32:14;96510.78;;;22.10;23.51
62524;BME280;53689;56.878;60.672;2023-12-20T09:34:42;96515.78;;;22.18;24.43
62524;BME280;53689;56.878;60.672;2023-12-20T09:37:09;96504.91;;;22.13;24.32
62524;BME280;53689;56.878;60.672;2023-12-20T09:39:38;96507.13;;;22.16;24.34
62524;BME280;53689;56.878;60.672;2023-12-20T09:42:06;96511.19;;;22.19;24.00
62524;BME280;53689;56.878;60.672;2023-12-20T09:44:34;96509.09;;;22.21;24.78
62524;BME280;53689;56.878;60.672;2023-12-20T09:47:04;96508.19;;;22.15;24.69
62524;BME280;53689;56.878;60.672;2023-12-20T09:49:33;96502.63;;;22.22;24.82
62524;BME280;53689;56.878;60.672;2023-12-20T09:52:01;96504.16;;;22.18;24.06
62524;BME280;53689;56.878;60.672;2023-12-20T09:54:31;96512.34;;;22.23;24.36
62524;BME280;53689;56.878;60.672;2023-12-20T09:56:58;96497.25;;;22.22;23.85
62524;BME280;53689;56.878;60.672;2023-12-20T09:59:26;96507.53;;;22.25;23.33
62524;BME280;53689;56.878;60.672;2023-12-20T10:01:55;96494.59;;;22.27;23.44
62524;BME280;53689;56.878;60.672;2023-12-20T10:04:25;96504.03;;;22.25;23.84
62524;BME280;53689;56.878;60.672;2023-12-20T10:07:02;96500.00;;;22.27;24.02
62524;BME280;53689;56.878;60.672;2023-12-20T10:09:34;96494.38;;;22.29;24.04
62524;BME280;53689;56.878;60.672;2023-12-20T10:12:02;96488.75;;;22.30;24.39
62524;BME280;53689;56.878;60.672;2023-12-20T10:14:31;96486.63;;;22.33;24.16
62524;BME280;53689;56.878;60.672;2023-12-20T10:17:02;96494.47;;;22.34;23.73
62524;BME280;53689;56.878;60.672;2023-12-20T10:19:30;96505.50;;;22.33;23.77
62524;BME280;53689;56.878;60.672;2023-12-20T10:22:00;96482.03;;;22.33;23.03
62524;BME280;53689;56.878;60.672;2023-12-20T10:24:29;96483.91;;;22.33;24.01
62524;BME280;53689;56.878;60.672;2023-12-20T10:27:04;96497.72;;;22.36;23.93
62524;BME280;53689;56.878;60.672;2023-12-20T10:29:33;96499.88;;;22.34;24.02
62524;BME280;53689;56.878;60.672;2023-12-20T10:32:23;96500.16;;;22.38;24.01
62524;BME280;53689;56.878;60.672;2023-12-20T10:34:53;96501.06;;;22.26;24.11
62524;BME280;53689;56.878;60.672;2023-12-20T10:37:23;96499.25;;;22.32;23.27
62524;BME280;53689;56.878;60.672;2023-12-20T10:39:53;96499.44;;;22.25;23.90
62524;BME280;53689;56.878;60.672;2023-12-20T10:42:22;96493.06;;;22.31;24.38
62524;BME280;53689;56.878;60.672;2023-12-20T10:44:50;96499.03;;;22.34;24.72
62524;BME280;53689;56.878;60.672;2023-12-20T10:47:18;96503.75;;;22.26;23.91
62524;BME280;53689;56.878;60.672;2023-12-20T10:49:47;96506.78;;;22.30;24.04
62524;BME280;53689;56.878;60.672;2023-12-20T10:52:17;96506.56;;;22.31;24.80
62524;BME280;53689;56.878;60.672;2023-12-20T10:54:46;96506.88;;;22.35;24.06
62524;BME280;53689;56.878;60.672;2023-12-20T10:57:14;96502.97;;;22.26;24.80
62524;BME280;53689;56.878;60.672;2023-12-20T10:59:46;96499.75;;;22.46;23.99
62524;BME280;53689;56.878;60.672;2023-12-20T11:02:17;96505.31;;;22.39;24.26
62524;BME280;53689;56.878;60.672;2023-12-20T11:04:52;96493.47;;;22.40;24.44
62524;BME280;53689;56.878;60.672;2023-12-20T11:07:23;96491.03;;;22.39;25.14
62524;BME280;53689;56.878;60.672;2023-12-20T11:09:59;96492.41;;;22.41;24.71
62524;BME280;53689;56.878;60.672;2023-12-20T11:12:37;96493.78;;;22.44;25.17
62524;BME280;53689;56.878;60.672;2023-12-20T11:15:07;96490.28;;;22.43;23.88
62524;BME280;53689;56.878;60.672;2023-12-20T11:17:35;96495.19;;;22.47;24.36
62524;BME280;53689;56.878;60.672;2023-12-20T11:20:08;96484.16;;;22.48;23.93
62524;BME280;53689;56.878;60.672;2023-12-20T11:22:37;96496.09;;;22.52;23.23
62524;BME280;53689;56.878;60.672;2023-12-20T11:25:10;96499.03;;;22.51;24.44
62524;BME280;53689;56.878;60.672;2023-12-20T11:27:41;96499.88;;;22.51;24.68
62524;BME280;53689;56.878;60.672;2023-12-20T11:30:11;96499.63;;;22.53;23.31
62524;BME280;53689;56.878;60.672;2023-12-20T11:32:40;96502.16;;;22.59;23.06
62524;BME280;53689;56.878;60.672;2023-12-20T11:35:18;96502.63;;;22.56;24.03
62524;BME280;53689;56.878;60.672;2023-12-20T11:37:48;96501.81;;;22.56;24.13
62524;BME280;53689;56.878;60.672;2023-12-20T11:40:17;96503.97;;;22.54;24.02
62524;BME280;53689;56.878;60.672;2023-12-20T11:42:49;96493.00;;;22.61;23.68
62524;BME280;53689;56.878;60.672;2023-12-20T11:45:18;96496.19;;;22.57;24.19
62524;BME280;53689;56.878;60.672;2023-12-20T11:47:47;96502.22;;;22.65;24.03
62524;BME280;53689;56.878;60.672;2023-12-20T11:50:16;96506.94;;;22.75;23.42
62524;BME280;53689;56.878;60.672;2023-12-20T11:52:44;96507.84;;;22.80;23.24
62524;BME280;53689;56.878;60.672;2023-12-20T11:55:12;96500.81;;;22.79;23.76
62524;BME280;53689;56.878;60.672;2023-12-20T11:57:43;96500.34;;;22.65;23.72
62524;BME280;53689;56.878;60.672;2023-12-20T12:00:12;96503.00;;;22.82;22.52
62524;BME280;53689;56.878;60.672;2023-12-20T12:02:40;96503.94;;;22.71;23.56
62524;BME280;53689;56.878;60.672;2023-12-20T12:05:09;96505.13;;;22.80;23.42
62524;BME280;53689;56.878;60.672;2023-12-20T12:07:37;96499.03;;;22.68;23.92
62524;BME280;53689;56.878;60.672;2023-12-20T12:10:07;96501.75;;;22.68;23.64
62524;BME280;53689;56.878;60.672;2023-12-20T12:12:35;96492.59;;;22.69;24.34
62524;BME280;53689;56.878;60.672;2023-12-20T12:15:06;96489.28;;;22.67;24.43
62524;BME280;53689;56.878;60.672;2023-12-20T12:17:35;96488.25;;;22.68;24.18
62524;BME280;53689;56.878;60.672;2023-12-20T12:20:06;96496.06;;;22.69;23.83
62524;BME280;53689;56.878;60.672;2023-12-20T12:22:35;96495.50;;;22.67;23.77
62524;BME280;53689;56.878;60.672;2023-12-20T12:25:10;96495.34;;;22.74;23.66
62524;BME280;53689;56.878;60.672;2023-12-20T12:27:40;96501.47;;;22.69;24.24
62524;BME280;53689;56.878;60.672;2023-12-20T12:30:10;96506.06;;;22.69;23.58
62524;BME280;53689;56.878;60.672;2023-12-20T12:32:39;96508.16;;;22.67;23.96
62524;BME280;53689;56.878;60.672;2023-12-20T12:35:07;96509.66;;;22.75;23.37
62524;BME280;53689;56.878;60.672;2023-12-20T12:37:38;96502.03;;;22.71;24.41
62524;BME280;53689;56.878;60.672;2023-12-20T12:40:09;96515.78;;;22.70;23.66
62524;BME280;53689;56.878;60.672;2023-12-20T12:42:37;96505.22;;;22.68;24.55
62524;BME280;53689;56.878;60.672;2023-12-20T12:45:06;96509.84;;;22.68;24.25
62524;BME280;53689;56.878;60.672;2023-12-20T12:47:36;96522.81;;;22.71;24.38
62524;BME280;53689;56.878;60.672;2023-12-20T12:50:04;96529.28;;;22.70;23.89
62524;BME280;53689;56.878;60.672;2023-12-20T12:52:33;96527.22;;;22.77;24.21
62524;BME280;53689;56.878;60.672;2023-12-20T12:55:01;96516.91;;;22.74;24.41
62524;BME280;53689;56.878;60.672;2023-12-20T12:57:29;96522.31;;;22.74;24.45